Flight Track Log - Related Links

Times and Time Zones

All times are in EDT time to prevent confusion due to time zone crossing. See the BMR818 flight status page for this flight to view local times or setup timezone preferences in your user account.

Time Position Orientation Groundspeed Altitude Reporting Facility
EDT Latitude Longitude Course Direction KTS MPH feet Rate Location/Type
Wed 10:21:15 AM 52.4590 9.6453 265° West  Level Estimated
Wed 10:22:15 AM 52.4505 9.4865 265° West  Level Estimated
Wed 10:23:15 AM 52.4418 9.3276 265° West  Level Estimated
Wed 10:24:15 AM 52.4329 9.1688 265° West  Level Estimated
Wed 10:25:15 AM 52.4237 9.0101 265° West  Level Estimated
Wed 10:26:15 AM 52.4144 8.8515 264° West  Level Estimated
Wed 10:27:15 AM 52.4048 8.6929 264° West  Level Estimated
Wed 10:28:15 AM 52.3951 8.5344 264° West  Level Estimated
Wed 10:29:15 AM 52.3851 8.3760 264° West  Level Estimated
Wed 10:30:15 AM 52.3749 8.2177 264° West  Level Estimated
Wed 10:31:15 AM 52.3645 8.0594 264° West  Level Estimated
Wed 10:32:15 AM 52.3539 7.9012 264° West  Level Estimated
Wed 10:33:15 AM 52.3430 7.7430 264° West  Level Estimated
Wed 10:34:15 AM 52.3320 7.5850 263° West  Level Estimated
Wed 10:35:15 AM 52.3207 7.4270 263° West  Level Estimated
Wed 10:36:15 AM 52.3093 7.2691 263° West  Level Estimated
Wed 10:37:15 AM 52.2976 7.1113 263° West  Level Estimated
Wed 10:38:15 AM 52.2857 6.9536 263° West  Level Estimated
Wed 10:39:15 AM 52.2736 6.7959 263° West  Level Estimated
Wed 10:40:15 AM 52.2613 6.6384 263° West  Level Estimated
Wed 10:41:15 AM 52.2488 6.4809 263° West  Level Estimated
Wed 10:42:15 AM 52.2361 6.3235 262° West  Level Estimated
Wed 10:43:15 AM 52.2232 6.1663 262° West  Level Estimated
Wed 10:44:15 AM 52.2100 6.0091 262° West  Level Estimated
Wed 10:45:15 AM 52.1967 5.8520 262° West  Level Estimated
Wed 10:46:15 AM 52.1832 5.6950 262° West  Level Estimated
Wed 10:47:15 AM 52.1694 5.5381 262° West  Level Estimated
Wed 10:48:15 AM 52.1554 5.3812 262° West  Level Estimated
Wed 10:49:15 AM 52.1412 5.2245 262° West  Level Estimated
Wed 10:50:15 AM 52.1269 5.0679 261° West  Level Estimated
Wed 10:51:15 AM 52.1123 4.9114 261° West  Level Estimated
Wed 10:52:15 AM 52.0975 4.7550 261° West  Level Estimated
Wed 10:53:15 AM 52.0825 4.5987 261° West  Level Estimated
Wed 10:54:15 AM 52.0672 4.4425 261° West  Level Estimated
Wed 10:55:15 AM 52.0518 4.2864 261° West  Level Estimated
Wed 10:56:15 AM 52.0362 4.1304 261° West  Level Estimated
Wed 10:57:15 AM 52.0204 3.9746 261° West  Level Estimated
Wed 10:58:15 AM 52.0043 3.8188 260° West  Level Estimated
Wed 10:59:15 AM 51.9881 3.6632 260° West  Level Estimated
Wed 11:00:15 AM 51.9716 3.5076 260° West  Level Estimated
Wed 11:01:15 AM 51.9550 3.3522 260° West  Level Estimated
Wed 11:02:15 AM 51.9381 3.1969 260° West  Level Estimated
Wed 11:03:15 AM 51.9211 3.0417 260° West  Level Estimated
Wed 11:04:15 AM 51.9038 2.8867 260° West  Level Estimated
Wed 11:05:15 AM 51.8864 2.7317 260° West  Level Estimated
Wed 11:06:15 AM 51.8687 2.5769 259° West  Level Estimated
Wed 11:07:15 AM 51.8508 2.4222 259° West  Level Estimated
Wed 11:08:15 AM 51.8327 2.2676 259° West  Level Estimated
Wed 11:09:15 AM 51.8145 2.1131 259° West  Level Estimated
Wed 11:10:15 AM 51.7960 1.9588 259° West  Level Estimated
Wed 11:11:15 AM 51.7773 1.8046 259° West  Level Estimated
Wed 11:12:15 AM 51.7584 1.6505 259° West  Level Estimated
Wed 11:13:15 AM 51.7393 1.4966 259° West  Level Estimated
Wed 11:14:15 AM 51.7201 1.3428 258° West  Level Estimated
Wed 11:15:15 AM 51.7006 1.1891 258° West  Level Estimated
Wed 11:16:15 AM 51.6809 1.0356 258° West  Level Estimated
Wed 11:17:15 AM 51.6610 0.8821 258° West  Level Estimated
Wed 11:18:15 AM 51.6409 0.7289 258° West  Level Estimated
Wed 11:19:15 AM 51.6206 0.5757 258° West  Level Estimated
Wed 11:20:15 AM 51.6001 0.4227 258° West  Level Estimated
Wed 11:21:15 AM 51.5795 0.2699 258° West  Level Estimated
Wed 11:22:15 AM 51.5586 0.1171 258° West  Level Estimated
Wed 11:23:15 AM 51.5375 -0.0355 257° West  Level Estimated
Wed 11:24:15 AM 51.5162 -0.1879 257° West  Level Estimated
Wed 11:25:15 AM 51.4947 -0.3402 257° West  Level Estimated
Wed 11:26:15 AM 51.4731 -0.4924 77° East  Level Estimated
Wed 11:27:15 AM 51.4948 -0.3402 257° West  Level Estimated
Wed 11:28:15 AM 51.4731 -0.4924 77° East  Level Estimated
Wed 11:29:15 AM 51.4948 -0.3402 257° West  Level Estimated
Wed 11:30:15 AM 51.4731 -0.4924 77° East  Level Estimated
Wed 11:31:15 AM 51.4948 -0.3402 257° West  Level Estimated
Wed 11:32:15 AM 51.4731 -0.4924 257° West  Level Estimated

Login

Don't have an account? Register now (free) for customized features, flight alerts, and more!